メインページ
METAR-TAF:

METAR-TAF

空港 :

ポートオブスペイン, トリニダード島, トリニダード・トバゴ

緯度: 10-37N, 経度: 061-21W, 海抜: 12m

現時点の気象観測

当レポートは44分前の11:00(UTC)に作成
の風 7kt
気温 27°C
湿度 84%
気圧 1014 hPa
視程10km以上
高度1600ftの雲はほとんどない
近辺でにわか雨

METAR: TTPP 221100Z 09007KT 9999 VCSH FEW016 27/24 Q1014 NOSIG RMK VCSH NE

時間: 07:44 (11:44 UTC)

予報

当レポートは1時間44分前の10:00(UTC)に作成
予報は22日の 12時(UTC)から 23日の 12時(UTC)まで有効
の風 15kt
視程10km以上
高度2000ftの雲は散在している
近辺でにわか雨
確率 40% :
22日の 15時(UTC)から 22日の 20時(UTC)まで一時的に
の風 15kt、最大25ktの突風を伴う
視程: 5000m
高度1500ftの千切れ雲あり
にわか雨
23日の 00時(UTC)から 23日の 02時(UTC)まで徐々に
の風 5kt
高度1600ftの雲はほとんどない

TAF: TTPP 221000Z 2212/2312 10015KT 9999 VCSH SCT020 PROB40 TEMPO 2215/2220 10015G25KT 5000 SHRA BKN015 BECMG 2300/2302 09005KT FEW016

4,000以上の空港の気象観測と天気予報(METAR報とTAF報)

利用可能な観測所は地図上に黄色い丸と赤い丸で示す。

丸の上にカーソルを重ねると観測所名を参照できる。

次にクリックすると気象観測と天気予報を参照できる。

マップの切り替え:黒色「×」印の緑ボタンをクリックして拡大、「-」印の緑ボタンをクリックして縮小、緑色の三角印をクリックして隣りの地図に切り替え


METAR-TAF: